sensor_id;sensor_type;location;lat;lon;timestamp;pressure;altitude;pressure_sealevel;temperature;humidity
25232;BME280;13176;51.140;6.290;2023-03-26T00:01:36;100090.72;;;12.09;74.87
25232;BME280;13176;51.140;6.290;2023-03-26T00:04:05;99931.56;;;10.83;75.46
25232;BME280;13176;51.140;6.290;2023-03-26T00:06:34;100007.66;;;11.30;75.31
25232;BME280;13176;51.140;6.290;2023-03-26T00:09:07;100124.28;;;11.95;75.77
25232;BME280;13176;51.140;6.290;2023-03-26T00:11:33;100038.28;;;11.57;74.54
25232;BME280;13176;51.140;6.290;2023-03-26T00:14:00;100130.91;;;11.77;76.59
25232;BME280;13176;51.140;6.290;2023-03-26T00:16:29;99937.66;;;10.83;76.81
25232;BME280;13176;51.140;6.290;2023-03-26T00:18:57;100036.19;;;11.68;75.68
25232;BME280;13176;51.140;6.290;2023-03-26T00:21:25;100108.34;;;11.73;76.74
25232;BME280;13176;51.140;6.290;2023-03-26T00:23:59;100006.31;;;11.17;76.28
25232;BME280;13176;51.140;6.290;2023-03-26T00:26:26;100107.97;;;11.87;76.83
25232;BME280;13176;51.140;6.290;2023-03-26T00:28:54;100003.81;;;11.43;76.75
25232;BME280;13176;51.140;6.290;2023-03-26T00:31:20;99946.09;;;11.22;76.19
25232;BME280;13176;51.140;6.290;2023-03-26T00:33:47;100084.19;;;11.96;76.43
25232;BME280;13176;51.140;6.290;2023-03-26T00:36:19;99936.63;;;11.19;76.18
25232;BME280;13176;51.140;6.290;2023-03-26T00:38:45;100092.38;;;11.84;76.83
25232;BME280;13176;51.140;6.290;2023-03-26T00:41:15;100104.03;;;12.01;77.36
25232;BME280;13176;51.140;6.290;2023-03-26T00:43:55;100100.13;;;12.16;76.69
25232;BME280;13176;51.140;6.290;2023-03-26T00:46:23;100094.97;;;12.13;76.92
25232;BME280;13176;51.140;6.290;2023-03-26T00:48:50;100084.75;;;12.05;77.22
25232;BME280;13176;51.140;6.290;2023-03-26T00:51:18;100049.72;;;11.82;77.32
25232;BME280;13176;51.140;6.290;2023-03-26T00:53:47;100075.22;;;12.03;77.41
25232;BME280;13176;51.140;6.290;2023-03-26T00:56:14;99930.69;;;11.13;77.59
25232;BME280;13176;51.140;6.290;2023-03-26T00:58:40;100065.06;;;11.94;77.47
25232;BME280;13176;51.140;6.290;2023-03-26T01:01:13;100049.56;;;11.88;76.85
25232;BME280;13176;51.140;6.290;2023-03-26T01:03:41;100054.31;;;12.03;76.44
25232;BME280;13176;51.140;6.290;2023-03-26T01:06:30;100032.91;;;11.90;76.52
25232;BME280;13176;51.140;6.290;2023-03-26T01:09:16;100050.91;;;12.01;76.68
25232;BME280;13176;51.140;6.290;2023-03-26T01:11:44;100008.25;;;11.70;76.60
25232;BME280;13176;51.140;6.290;2023-03-26T01:14:16;100044.25;;;11.91;76.82
25232;BME280;13176;51.140;6.290;2023-03-26T01:16:49;99904.09;;;11.00;76.77
25232;BME280;13176;51.140;6.290;2023-03-26T01:22:24;100037.66;;;11.78;77.23
25232;BME280;13176;51.140;6.290;2023-03-26T01:24:52;100025.56;;;11.74;77.41
25232;BME280;13176;51.140;6.290;2023-03-26T01:35:45;100028.41;;;11.66;78.38
25232;BME280;13176;51.140;6.290;2023-03-26T01:41:09;99995.75;;;11.50;77.77
25232;BME280;13176;51.140;6.290;2023-03-26T01:43:45;99988.78;;;11.51;77.37
25232;BME280;13176;51.140;6.290;2023-03-26T01:46:15;100005.28;;;11.53;77.43
25232;BME280;13176;51.140;6.290;2023-03-26T01:48:44;99932.38;;;11.15;77.78
25232;BME280;13176;51.140;6.290;2023-03-26T01:51:13;99935.50;;;10.97;77.57
25232;BME280;13176;51.140;6.290;2023-03-26T01:53:43;100009.81;;;11.46;77.49
25232;BME280;13176;51.140;6.290;2023-03-26T01:56:16;100011.28;;;11.56;77.38
25232;BME280;13176;51.140;6.290;2023-03-26T01:59:17;99998.50;;;11.46;76.67
25232;BME280;13176;51.140;6.290;2023-03-26T02:02:04;99995.81;;;11.49;76.75
25232;BME280;13176;51.140;6.290;2023-03-26T02:04:39;99967.41;;;11.37;76.85
25232;BME280;13176;51.140;6.290;2023-03-26T02:07:12;99988.13;;;11.43;76.86
25232;BME280;13176;51.140;6.290;2023-03-26T02:09:52;99946.97;;;11.22;76.43
25232;BME280;13176;51.140;6.290;2023-03-26T02:12:21;99959.72;;;11.32;76.32
25232;BME280;13176;51.140;6.290;2023-03-26T02:14:49;99854.16;;;10.83;75.94
25232;BME280;13176;51.140;6.290;2023-03-26T02:17:15;99840.03;;;10.90;75.76
25232;BME280;13176;51.140;6.290;2023-03-26T02:19:44;99875.94;;;11.11;75.85
25232;BME280;13176;51.140;6.290;2023-03-26T02:22:11;99951.25;;;11.55;75.71
25232;BME280;13176;51.140;6.290;2023-03-26T02:24:42;99961.13;;;11.73;75.32
25232;BME280;13176;51.140;6.290;2023-03-26T02:27:08;99938.81;;;11.63;75.46
25232;BME280;13176;51.140;6.290;2023-03-26T02:29:38;99837.69;;;11.10;75.25
25232;BME280;13176;51.140;6.290;2023-03-26T02:32:06;99875.19;;;11.35;75.15
25232;BME280;13176;51.140;6.290;2023-03-26T02:34:32;99917.13;;;11.59;75.22
25232;BME280;13176;51.140;6.290;2023-03-26T02:36:59;99927.22;;;11.71;75.26
25232;BME280;13176;51.140;6.290;2023-03-26T02:39:28;99894.63;;;11.55;75.27
25232;BME280;13176;51.140;6.290;2023-03-26T02:41:54;99834.91;;;11.15;75.23
25232;BME280;13176;51.140;6.290;2023-03-26T02:44:20;99816.69;;;11.13;75.25
25232;BME280;13176;51.140;6.290;2023-03-26T02:46:47;99856.19;;;11.30;75.05
25232;BME280;13176;51.140;6.290;2023-03-26T02:49:13;99862.75;;;11.43;74.88
25232;BME280;13176;51.140;6.290;2023-03-26T02:51:40;99813.28;;;11.11;74.75
25232;BME280;13176;51.140;6.290;2023-03-26T02:54:06;99798.16;;;11.22;74.66
25232;BME280;13176;51.140;6.290;2023-03-26T02:56:32;99888.75;;;11.76;74.90
25232;BME280;13176;51.140;6.290;2023-03-26T02:58:59;99877.41;;;11.76;74.65
25232;BME280;13176;51.140;6.290;2023-03-26T03:01:26;99832.38;;;11.40;74.95
25232;BME280;13176;51.140;6.290;2023-03-26T03:03:56;99891.38;;;11.75;75.84
25232;BME280;13176;51.140;6.290;2023-03-26T03:06:22;99811.97;;;11.26;75.88
25232;BME280;13176;51.140;6.290;2023-03-26T03:08:51;99833.50;;;11.32;76.30
25232;BME280;13176;51.140;6.290;2023-03-26T03:11:19;99830.69;;;11.39;76.38
25232;BME280;13176;51.140;6.290;2023-03-26T03:13:47;99800.84;;;11.19;77.16
25232;BME280;13176;51.140;6.290;2023-03-26T03:16:14;99802.84;;;11.11;77.41
25232;BME280;13176;51.140;6.290;2023-03-26T03:18:40;99850.69;;;11.39;77.93
25232;BME280;13176;51.140;6.290;2023-03-26T03:21:07;99867.91;;;11.46;78.03
25232;BME280;13176;51.140;6.290;2023-03-26T03:23:33;99846.78;;;11.26;78.78
25232;BME280;13176;51.140;6.290;2023-03-26T03:26:00;99738.16;;;10.64;79.32
25232;BME280;13176;51.140;6.290;2023-03-26T03:28:27;99814.91;;;11.15;79.46
25232;BME280;13176;51.140;6.290;2023-03-26T03:30:54;99735.28;;;10.73;79.79
25232;BME280;13176;51.140;6.290;2023-03-26T03:33:23;99871.88;;;11.59;80.00
25232;BME280;13176;51.140;6.290;2023-03-26T03:35:49;99795.09;;;11.08;80.80
25232;BME280;13176;51.140;6.290;2023-03-26T03:38:16;99792.56;;;11.05;81.13
25232;BME280;13176;51.140;6.290;2023-03-26T03:40:43;99857.72;;;11.37;81.74
25232;BME280;13176;51.140;6.290;2023-03-26T03:43:10;99703.28;;;10.39;83.11
25232;BME280;13176;51.140;6.290;2023-03-26T03:45:36;99814.44;;;11.03;83.88
25232;BME280;13176;51.140;6.290;2023-03-26T03:48:03;99787.72;;;10.93;83.79
25232;BME280;13176;51.140;6.290;2023-03-26T03:50:29;99821.94;;;11.12;83.97
25232;BME280;13176;51.140;6.290;2023-03-26T03:52:59;99700.84;;;10.33;84.16
25232;BME280;13176;51.140;6.290;2023-03-26T03:55:26;99826.00;;;11.22;83.93
25232;BME280;13176;51.140;6.290;2023-03-26T03:57:53;99751.56;;;10.81;83.97
25232;BME280;13176;51.140;6.290;2023-03-26T04:00:19;99712.94;;;10.65;84.09
25232;BME280;13176;51.140;6.290;2023-03-26T04:02:47;99799.78;;;11.26;83.98
25232;BME280;13176;51.140;6.290;2023-03-26T04:05:14;99785.19;;;11.19;83.96
25232;BME280;13176;51.140;6.290;2023-03-26T04:07:40;99622.81;;;10.27;84.63
25232;BME280;13176;51.140;6.290;2023-03-26T04:10:08;99765.22;;;11.18;84.16
25232;BME280;13176;51.140;6.290;2023-03-26T04:12:34;99774.66;;;11.22;83.97
25232;BME280;13176;51.140;6.290;2023-03-26T04:15:01;99754.50;;;11.26;84.24
25232;BME280;13176;51.140;6.290;2023-03-26T04:17:27;99660.59;;;10.71;84.30
25232;BME280;13176;51.140;6.290;2023-03-26T04:19:55;99644.44;;;10.58;84.11
25232;BME280;13176;51.140;6.290;2023-03-26T04:22:22;99726.59;;;11.28;84.02
25232;BME280;13176;51.140;6.290;2023-03-26T04:24:51;99663.69;;;10.83;83.81
25232;BME280;13176;51.140;6.290;2023-03-26T04:27:23;99723.81;;;11.32;83.97
25232;BME280;13176;51.140;6.290;2023-03-26T04:29:52;99727.56;;;11.25;84.07
25232;BME280;13176;51.140;6.290;2023-03-26T04:32:25;99733.44;;;11.32;83.94
25232;BME280;13176;51.140;6.290;2023-03-26T04:34:55;99742.72;;;11.40;84.20
25232;BME280;13176;51.140;6.290;2023-03-26T04:37:32;99753.94;;;11.43;84.02
25232;BME280;13176;51.140;6.290;2023-03-26T04:40:01;99743.50;;;11.43;83.97
25232;BME280;13176;51.140;6.290;2023-03-26T04:42:37;99744.34;;;11.44;84.36
25232;BME280;13176;51.140;6.290;2023-03-26T04:45:07;99744.34;;;11.44;84.21
25232;BME280;13176;51.140;6.290;2023-03-26T04:47:34;99724.88;;;11.27;84.29
25232;BME280;13176;51.140;6.290;2023-03-26T04:50:06;99696.13;;;11.28;83.89
25232;BME280;13176;51.140;6.290;2023-03-26T04:52:34;99620.16;;;10.84;83.73
25232;BME280;13176;51.140;6.290;2023-03-26T04:55:01;99734.22;;;11.61;83.68
25232;BME280;13176;51.140;6.290;2023-03-26T04:57:32;99700.84;;;11.43;83.35
25232;BME280;13176;51.140;6.290;2023-03-26T05:00:01;99719.34;;;11.63;83.84
25232;BME280;13176;51.140;6.290;2023-03-26T05:02:34;99700.25;;;11.61;83.77
25232;BME280;13176;51.140;6.290;2023-03-26T05:05:02;99709.56;;;11.68;83.42
25232;BME280;13176;51.140;6.290;2023-03-26T05:07:29;99639.31;;;11.34;83.18
25232;BME280;13176;51.140;6.290;2023-03-26T05:09:55;99683.16;;;11.51;83.46
25232;BME280;13176;51.140;6.290;2023-03-26T05:12:22;99671.53;;;11.61;82.75
25232;BME280;13176;51.140;6.290;2023-03-26T05:14:49;99692.88;;;11.72;82.49
25232;BME280;13176;51.140;6.290;2023-03-26T05:17:15;99695.50;;;11.72;82.68
25232;BME280;13176;51.140;6.290;2023-03-26T05:19:44;99576.84;;;11.04;82.01
25232;BME280;13176;51.140;6.290;2023-03-26T05:22:12;99670.50;;;11.65;82.47
25232;BME280;13176;51.140;6.290;2023-03-26T05:24:38;99678.91;;;11.73;82.35
25232;BME280;13176;51.140;6.290;2023-03-26T05:27:04;99662.59;;;11.66;82.59
25232;BME280;13176;51.140;6.290;2023-03-26T05:29:31;99663.25;;;11.73;82.28
25232;BME280;13176;51.140;6.290;2023-03-26T05:31:57;99659.81;;;11.71;82.28
25232;BME280;13176;51.140;6.290;2023-03-26T05:34:24;99649.97;;;11.79;82.53
25232;BME280;13176;51.140;6.290;2023-03-26T05:36:52;99502.38;;;10.94;82.11
25232;BME280;13176;51.140;6.290;2023-03-26T05:39:18;99634.16;;;11.59;82.35
25232;BME280;13176;51.140;6.290;2023-03-26T05:41:50;99510.59;;;11.08;82.23
25232;BME280;13176;51.140;6.290;2023-03-26T05:44:18;99528.53;;;11.17;82.34
25232;BME280;13176;51.140;6.290;2023-03-26T05:46:44;99520.72;;;11.17;81.99
25232;BME280;13176;51.140;6.290;2023-03-26T05:49:11;99611.19;;;11.67;82.30
25232;BME280;13176;51.140;6.290;2023-03-26T05:51:37;99549.25;;;11.22;82.04
25232;BME280;13176;51.140;6.290;2023-03-26T05:54:04;99538.50;;;11.06;82.88
25232;BME280;13176;51.140;6.290;2023-03-26T05:56:30;99635.84;;;11.60;83.27
25232;BME280;13176;51.140;6.290;2023-03-26T05:58:57;99606.13;;;11.38;84.44
25232;BME280;13176;51.140;6.290;2023-03-26T06:01:23;99594.88;;;11.36;84.56
25232;BME280;13176;51.140;6.290;2023-03-26T06:03:50;99625.63;;;11.54;85.15
25232;BME280;13176;51.140;6.290;2023-03-26T06:06:19;99565.13;;;11.16;85.33
25232;BME280;13176;51.140;6.290;2023-03-26T06:08:48;99495.47;;;10.69;85.32
25232;BME280;13176;51.140;6.290;2023-03-26T06:11:27;99528.81;;;10.85;85.95
25232;BME280;13176;51.140;6.290;2023-03-26T06:13:54;99593.81;;;11.17;86.35
25232;BME280;13176;51.140;6.290;2023-03-26T06:16:20;99576.84;;;11.04;87.00
25232;BME280;13176;51.140;6.290;2023-03-26T06:18:53;99567.47;;;10.99;87.45
25232;BME280;13176;51.140;6.290;2023-03-26T06:21:23;99575.03;;;11.06;87.85
25232;BME280;13176;51.140;6.290;2023-03-26T06:23:50;99564.91;;;10.97;88.18
25232;BME280;13176;51.140;6.290;2023-03-26T06:26:17;99567.31;;;11.03;88.85
25232;BME280;13176;51.140;6.290;2023-03-26T06:28:43;99573.13;;;11.11;88.67
25232;BME280;13176;51.140;6.290;2023-03-26T06:31:10;99588.28;;;11.26;88.92
25232;BME280;13176;51.140;6.290;2023-03-26T06:33:37;99470.41;;;10.63;88.65
25232;BME280;13176;51.140;6.290;2023-03-26T06:36:03;99531.03;;;10.96;88.77
25232;BME280;13176;51.140;6.290;2023-03-26T06:38:30;99509.63;;;10.86;88.77
25232;BME280;13176;51.140;6.290;2023-03-26T06:41:06;99560.56;;;11.22;88.73
25232;BME280;13176;51.140;6.290;2023-03-26T06:43:32;99583.41;;;11.40;89.03
25232;BME280;13176;51.140;6.290;2023-03-26T06:46:02;99558.75;;;11.24;88.56
25232;BME280;13176;51.140;6.290;2023-03-26T06:48:28;99499.19;;;10.86;89.01
25232;BME280;13176;51.140;6.290;2023-03-26T06:50:58;99512.66;;;10.99;88.42
25232;BME280;13176;51.140;6.290;2023-03-26T06:53:25;99535.59;;;11.14;88.86
25232;BME280;13176;51.140;6.290;2023-03-26T06:55:52;99579.56;;;11.50;88.62
25232;BME280;13176;51.140;6.290;2023-03-26T06:58:20;99495.59;;;10.90;88.72
25232;BME280;13176;51.140;6.290;2023-03-26T07:00:47;99521.13;;;11.05;89.08
25232;BME280;13176;51.140;6.290;2023-03-26T07:03:15;99556.81;;;11.29;89.42
25232;BME280;13176;51.140;6.290;2023-03-26T07:05:42;99405.06;;;10.43;89.26
25232;BME280;13176;51.140;6.290;2023-03-26T07:08:09;99551.16;;;11.41;89.23
25232;BME280;13176;51.140;6.290;2023-03-26T07:10:35;99562.47;;;11.41;89.65
25232;BME280;13176;51.140;6.290;2023-03-26T07:13:03;99516.28;;;11.19;90.10
25232;BME280;13176;51.140;6.290;2023-03-26T07:15:29;99418.47;;;10.57;90.25
25232;BME280;13176;51.140;6.290;2023-03-26T07:17:56;99522.31;;;11.21;90.30
25232;BME280;13176;51.140;6.290;2023-03-26T07:20:23;99549.47;;;11.40;90.75
25232;BME280;13176;51.140;6.290;2023-03-26T07:22:49;99529.25;;;11.22;91.15
25232;BME280;13176;51.140;6.290;2023-03-26T07:25:17;99526.66;;;11.21;91.15
25232;BME280;13176;51.140;6.290;2023-03-26T07:30:26;99531.16;;;11.17;91.72
25232;BME280;13176;51.140;6.290;2023-03-26T07:33:02;99544.34;;;11.37;91.94
25232;BME280;13176;51.140;6.290;2023-03-26T07:41:39;99495.50;;;11.16;92.31
25232;BME280;13176;51.140;6.290;2023-03-26T07:44:30;99530.66;;;11.31;92.51
25232;BME280;13176;51.140;6.290;2023-03-26T07:47:01;99526.44;;;11.27;92.53
25232;BME280;13176;51.140;6.290;2023-03-26T07:49:36;99462.56;;;10.89;92.62
25232;BME280;13176;51.140;6.290;2023-03-26T07:52:03;99435.28;;;10.73;92.63
25232;BME280;13176;51.140;6.290;2023-03-26T07:54:30;99406.22;;;10.59;93.15
25232;BME280;13176;51.140;6.290;2023-03-26T07:57:01;99510.97;;;11.22;93.32
25232;BME280;13176;51.140;6.290;2023-03-26T07:59:39;99397.94;;;10.48;93.49
25232;BME280;13176;51.140;6.290;2023-03-26T08:10:22;99485.38;;;11.07;94.21
25232;BME280;13176;51.140;6.290;2023-03-26T08:15:55;99487.78;;;11.13;94.13
25232;BME280;13176;51.140;6.290;2023-03-26T08:18:54;99514.25;;;11.27;94.51
25232;BME280;13176;51.140;6.290;2023-03-26T08:21:30;99493.00;;;11.13;94.51
25232;BME280;13176;51.140;6.290;2023-03-26T08:31:58;99461.41;;;10.96;95.13
25232;BME280;13176;51.140;6.290;2023-03-26T08:34:25;99414.31;;;10.76;95.32
25232;BME280;13176;51.140;6.290;2023-03-26T08:36:51;99496.53;;;11.12;95.70
25232;BME280;13176;51.140;6.290;2023-03-26T08:39:18;99462.13;;;11.01;95.36
25232;BME280;13176;51.140;6.290;2023-03-26T08:47:53;99492.59;;;11.25;95.44
25232;BME280;13176;51.140;6.290;2023-03-26T08:50:56;99490.78;;;11.27;95.90
25232;BME280;13176;51.140;6.290;2023-03-26T08:53:53;99482.13;;;11.25;95.41
25232;BME280;13176;51.140;6.290;2023-03-26T08:56:31;99471.31;;;11.11;96.09
25232;BME280;13176;51.140;6.290;2023-03-26T09:05:36;99488.00;;;11.07;95.47
25232;BME280;13176;51.140;6.290;2023-03-26T09:16:26;99478.47;;;11.06;94.27
25232;BME280;13176;51.140;6.290;2023-03-26T09:19:17;99459.56;;;11.00;94.00
25232;BME280;13176;51.140;6.290;2023-03-26T09:25:03;99422.84;;;10.81;94.12
25232;BME280;13176;51.140;6.290;2023-03-26T09:28:27;99449.84;;;11.03;94.31
25232;BME280;13176;51.140;6.290;2023-03-26T09:31:17;99412.19;;;10.87;94.43
25232;BME280;13176;51.140;6.290;2023-03-26T09:39:35;99438.19;;;11.13;94.07
25232;BME280;13176;51.140;6.290;2023-03-26T09:42:08;99406.41;;;11.02;94.36
25232;BME280;13176;51.140;6.290;2023-03-26T09:50:50;99417.78;;;11.24;94.59
25232;BME280;13176;51.140;6.290;2023-03-26T09:53:43;99431.94;;;11.40;94.91
25232;BME280;13176;51.140;6.290;2023-03-26T09:56:30;99427.97;;;11.53;94.08
25232;BME280;13176;51.140;6.290;2023-03-26T10:16:25;99396.25;;;11.85;92.40
25232;BME280;13176;51.140;6.290;2023-03-26T10:22:33;99343.84;;;11.45;92.96
25232;BME280;13176;51.140;6.290;2023-03-26T10:25:25;99376.84;;;11.69;94.12
25232;BME280;13176;51.140;6.290;2023-03-26T10:29:02;99409.88;;;11.93;94.03
25232;BME280;13176;51.140;6.290;2023-03-26T10:31:10;99322.03;;;11.46;93.38
25232;BME280;13176;51.140;6.290;2023-03-26T10:37:18;99394.44;;;12.07;92.99
25232;BME280;13176;51.140;6.290;2023-03-26T10:40:04;99391.47;;;12.16;93.30
25232;BME280;13176;51.140;6.290;2023-03-26T10:48:29;99384.03;;;12.27;91.50
25232;BME280;13176;51.140;6.290;2023-03-26T10:53:43;99344.78;;;11.87;91.07
25232;BME280;13176;51.140;6.290;2023-03-26T10:56:34;99389.75;;;12.15;90.87
25232;BME280;13176;51.140;6.290;2023-03-26T10:59:11;99241.84;;;11.28;90.13
25232;BME280;13176;51.140;6.290;2023-03-26T11:01:42;99306.94;;;11.75;90.13
25232;BME280;13176;51.140;6.290;2023-03-26T11:04:22;99235.19;;;11.41;89.33
25232;BME280;13176;51.140;6.290;2023-03-26T11:09:48;99300.84;;;11.75;89.12
25232;BME280;13176;51.140;6.290;2023-03-26T11:20:15;99401.34;;;12.29;89.94
25232;BME280;13176;51.140;6.290;2023-03-26T11:22:59;99396.28;;;12.46;89.82
25232;BME280;13176;51.140;6.290;2023-03-26T11:31:55;99403.28;;;12.65;89.33
25232;BME280;13176;51.140;6.290;2023-03-26T11:34:29;99400.00;;;12.60;88.12
25232;BME280;13176;51.140;6.290;2023-03-26T11:37:02;99386.66;;;12.47;88.58
25232;BME280;13176;51.140;6.290;2023-03-26T11:39:48;99396.94;;;12.51;89.00
25232;BME280;13176;51.140;6.290;2023-03-26T11:42:18;99388.47;;;12.45;88.20
25232;BME280;13176;51.140;6.290;2023-03-26T11:44:54;99387.31;;;12.32;88.33
25232;BME280;13176;51.140;6.290;2023-03-26T11:47:37;99395.66;;;12.40;88.11
25232;BME280;13176;51.140;6.290;2023-03-26T11:50:15;99361.00;;;12.15;89.63
25232;BME280;13176;51.140;6.290;2023-03-26T11:52:43;99320.22;;;12.11;89.17
25232;BME280;13176;51.140;6.290;2023-03-26T11:55:12;99395.41;;;12.46;89.64
25232;BME280;13176;51.140;6.290;2023-03-26T11:57:43;99340.38;;;12.29;88.92
25232;BME280;13176;51.140;6.290;2023-03-26T12:00:16;99383.44;;;12.60;89.04
25232;BME280;13176;51.140;6.290;2023-03-26T12:02:47;99376.50;;;12.59;89.04
25232;BME280;13176;51.140;6.290;2023-03-26T12:05:22;99384.69;;;12.51;87.55
25232;BME280;13176;51.140;6.290;2023-03-26T12:10:22;99415.63;;;12.62;87.73
25232;BME280;13176;51.140;6.290;2023-03-26T12:12:52;99409.03;;;12.53;86.92
25232;BME280;13176;51.140;6.290;2023-03-26T12:15:20;99384.16;;;12.44;87.34
25232;BME280;13176;51.140;6.290;2023-03-26T12:17:52;99301.91;;;11.91;86.90
25232;BME280;13176;51.140;6.290;2023-03-26T12:22:58;99413.06;;;12.41;86.89
25232;BME280;13176;51.140;6.290;2023-03-26T12:25:25;99421.16;;;12.15;87.26
25232;BME280;13176;51.140;6.290;2023-03-26T12:31:10;99416.50;;;12.21;88.07
25232;BME280;13176;51.140;6.290;2023-03-26T12:33:37;99406.28;;;12.37;87.67
25232;BME280;13176;51.140;6.290;2023-03-26T12:36:25;99424.44;;;12.20;88.73
25232;BME280;13176;51.140;6.290;2023-03-26T12:49:50;99406.53;;;12.31;87.40
25232;BME280;13176;51.140;6.290;2023-03-26T12:55:19;99442.28;;;12.30;88.64
25232;BME280;13176;51.140;6.290;2023-03-26T13:01:09;99436.88;;;12.35;87.85
25232;BME280;13176;51.140;6.290;2023-03-26T13:03:54;99449.53;;;12.24;88.04
25232;BME280;13176;51.140;6.290;2023-03-26T13:06:42;99377.03;;;11.86;88.15
25232;BME280;13176;51.140;6.290;2023-03-26T13:10:06;99439.09;;;12.44;87.82
25232;BME280;13176;51.140;6.290;2023-03-26T13:15:42;99401.56;;;12.25;86.50
25232;BME280;13176;51.140;6.290;2023-03-26T13:18:31;99461.84;;;12.42;84.82
25232;BME280;13176;51.140;6.290;2023-03-26T13:24:24;99465.13;;;12.47;85.38
25232;BME280;13176;51.140;6.290;2023-03-26T13:30:02;99401.44;;;12.48;85.50
25232;BME280;13176;51.140;6.290;2023-03-26T13:32:57;99464.00;;;12.73;83.57
25232;BME280;13176;51.140;6.290;2023-03-26T13:38:12;99468.16;;;12.57;83.76
25232;BME280;13176;51.140;6.290;2023-03-26T13:46:44;99435.19;;;12.53;83.79
25232;BME280;13176;51.140;6.290;2023-03-26T13:49:22;99457.19;;;12.69;83.63
25232;BME280;13176;51.140;6.290;2023-03-26T13:52:00;99477.47;;;12.84;83.00
25232;BME280;13176;51.140;6.290;2023-03-26T13:54:33;99401.50;;;12.05;82.14
25232;BME280;13176;51.140;6.290;2023-03-26T13:57:59;99461.22;;;12.76;82.29
25232;BME280;13176;51.140;6.290;2023-03-26T14:00:44;99472.09;;;12.87;82.55
25232;BME280;13176;51.140;6.290;2023-03-26T14:07:12;99475.28;;;12.95;82.49
25232;BME280;13176;51.140;6.290;2023-03-26T14:09:45;99483.38;;;13.29;82.35
25232;BME280;13176;51.140;6.290;2023-03-26T14:12:28;99494.00;;;13.06;81.30
25232;BME280;13176;51.140;6.290;2023-03-26T14:15:04;99478.69;;;12.97;80.58
25232;BME280;13176;51.140;6.290;2023-03-26T14:40:26;99507.91;;;12.87;79.52
25232;BME280;13176;51.140;6.290;2023-03-26T14:45:54;99468.53;;;12.48;78.99
25232;BME280;13176;51.140;6.290;2023-03-26T14:49:18;99520.44;;;13.00;78.52
25232;BME280;13176;51.140;6.290;2023-03-26T14:52:08;99514.13;;;12.84;77.02
25232;BME280;13176;51.140;6.290;2023-03-26T14:54:43;99501.38;;;12.55;76.63
25232;BME280;13176;51.140;6.290;2023-03-26T15:06:05;99519.28;;;12.45;76.95
25232;BME280;13176;51.140;6.290;2023-03-26T15:14:40;99559.63;;;12.60;75.77
25232;BME280;13176;51.140;6.290;2023-03-26T15:25:36;99575.41;;;12.38;80.90
25232;BME280;13176;51.140;6.290;2023-03-26T15:33:58;99541.75;;;12.06;83.49
25232;BME280;13176;51.140;6.290;2023-03-26T15:42:51;99608.84;;;12.30;85.23
25232;BME280;13176;51.140;6.290;2023-03-26T15:48:30;99514.59;;;11.41;86.92
25232;BME280;13176;51.140;6.290;2023-03-26T15:51:24;99568.31;;;11.48;87.72
25232;BME280;13176;51.140;6.290;2023-03-26T15:59:38;99642.03;;;12.05;88.76
25232;BME280;13176;51.140;6.290;2023-03-26T16:02:28;99643.81;;;11.80;89.33
25232;BME280;13176;51.140;6.290;2023-03-26T16:05:26;99629.06;;;11.79;88.64
25232;BME280;13176;51.140;6.290;2023-03-26T16:10:42;99632.72;;;11.98;87.69
25232;BME280;13176;51.140;6.290;2023-03-26T16:18:33;99668.84;;;12.10;88.03
25232;BME280;13176;51.140;6.290;2023-03-26T16:34:55;99666.19;;;11.38;90.45
25232;BME280;13176;51.140;6.290;2023-03-26T16:40:31;99711.81;;;11.52;91.65
25232;BME280;13176;51.140;6.290;2023-03-26T16:45:54;99725.84;;;11.24;92.51
25232;BME280;13176;51.140;6.290;2023-03-26T16:51:57;99743.59;;;11.13;92.53
25232;BME280;13176;51.140;6.290;2023-03-26T17:02:55;99764.50;;;11.13;92.62
25232;BME280;13176;51.140;6.290;2023-03-26T17:08:08;99781.34;;;11.31;91.30
25232;BME280;13176;51.140;6.290;2023-03-26T17:10:59;99783.56;;;11.15;92.30
25232;BME280;13176;51.140;6.290;2023-03-26T17:13:58;99777.09;;;11.27;90.96
25232;BME280;13176;51.140;6.290;2023-03-26T17:16:38;99780.44;;;11.04;92.02
25232;BME280;13176;51.140;6.290;2023-03-26T17:19:35;99797.44;;;11.17;91.21
25232;BME280;13176;51.140;6.290;2023-03-26T17:22:15;99811.47;;;11.13;91.16
25232;BME280;13176;51.140;6.290;2023-03-26T17:24:59;99813.00;;;11.20;90.76
25232;BME280;13176;51.140;6.290;2023-03-26T17:27:42;99807.84;;;10.90;91.29
25232;BME280;13176;51.140;6.290;2023-03-26T17:33:34;99809.66;;;10.57;90.85
25232;BME280;13176;51.140;6.290;2023-03-26T17:41:09;99808.16;;;10.50;88.39
25232;BME280;13176;51.140;6.290;2023-03-26T17:49:06;99892.72;;;10.72;86.07
25232;BME280;13176;51.140;6.290;2023-03-26T17:51:41;99904.44;;;10.56;86.13
25232;BME280;13176;51.140;6.290;2023-03-26T17:54:21;99902.25;;;10.73;84.37
25232;BME280;13176;51.140;6.290;2023-03-26T17:56:50;99877.66;;;10.51;83.29
25232;BME280;13176;51.140;6.290;2023-03-26T17:59:22;99898.59;;;10.48;82.51
25232;BME280;13176;51.140;6.290;2023-03-26T18:01:53;99909.13;;;10.45;81.82
25232;BME280;13176;51.140;6.290;2023-03-26T18:04:30;99907.25;;;10.50;81.12
25232;BME280;13176;51.140;6.290;2023-03-26T18:20:51;99845.59;;;9.81;79.98
25232;BME280;13176;51.140;6.290;2023-03-26T18:23:44;99882.41;;;10.03;80.19
25232;BME280;13176;51.140;6.290;2023-03-26T18:26:18;99912.03;;;9.99;79.07
25232;BME280;13176;51.140;6.290;2023-03-26T18:28:52;99888.81;;;9.52;79.72
25232;BME280;13176;51.140;6.290;2023-03-26T18:31:34;99892.47;;;9.81;77.68
25232;BME280;13176;51.140;6.290;2023-03-26T18:34:12;100003.06;;;10.42;77.05
25232;BME280;13176;51.140;6.290;2023-03-26T18:36:42;100000.25;;;10.17;76.90
25232;BME280;13176;51.140;6.290;2023-03-26T18:39:11;99875.28;;;9.36;76.79
25232;BME280;13176;51.140;6.290;2023-03-26T18:41:39;100010.28;;;10.31;74.30
25232;BME280;13176;51.140;6.290;2023-03-26T18:44:13;99953.97;;;9.87;74.59
25232;BME280;13176;51.140;6.290;2023-03-26T18:46:44;99836.69;;;9.17;73.56